TimeHST,TemperatureF,Dew PointF,Humidity,Sea Level PressureIn,VisibilityMPH,Wind Direction,Wind SpeedMPH,Gust SpeedMPH,PrecipitationIn,Events,Conditions,WindDirDegrees,DateUTC
12:05 AM,73.4,64.4,73,30.04,10.0,Variable,4.6,-,N/A,,Mostly Cloudy,0,2013-07-13 10:05:00
12:53 AM,73.0,64.0,73,30.04,10.0,Variable,3.5,-,N/A,,Partly Cloudy,0,2013-07-13 10:53:00
1:53 AM,73.0,63.0,71,30.03,10.0,Variable,4.6,-,N/A,,Clear,0,2013-07-13 11:53:00
2:36 AM,73.4,62.6,69,30.00,10.0,Variable,3.5,-,N/A,,Partly Cloudy,0,2013-07-13 12:36:00
2:53 AM,72.0,62.1,71,30.01,10.0,Variable,3.5,-,N/A,,Clear,0,2013-07-13 12:53:00
3:53 AM,72.0,62.1,71,30.01,10.0,Variable,3.5,-,N/A,,Clear,0,2013-07-13 13:53:00
4:53 AM,71.1,63.0,75,30.00,10.0,ENE,4.6,-,N/A,,Clear,60,2013-07-13 14:53:00
5:53 AM,71.1,63.0,75,30.01,10.0,Variable,4.6,-,N/A,,Clear,0,2013-07-13 15:53:00
6:53 AM,73.0,63.0,71,30.03,10.0,Variable,4.6,-,N/A,,Clear,0,2013-07-13 16:53:00
7:53 AM,79.0,64.0,60,30.04,10.0,Variable,3.5,-,N/A,,Clear,0,2013-07-13 17:53:00
8:53 AM,79.0,66.0,64,30.05,10.0,ESE,4.6,-,N/A,,Overcast,120,2013-07-13 18:53:00
9:53 AM,81.0,64.0,56,30.05,10.0,Variable,6.9,-,N/A,,Mostly Cloudy,0,2013-07-13 19:53:00
10:53 AM,84.0,64.0,51,30.04,10.0,ENE,9.2,-,N/A,,Scattered Clouds,70,2013-07-13 20:53:00
11:53 AM,86.0,60.1,41,30.03,10.0,East,12.7,19.6,N/A,,Mostly Cloudy,100,2013-07-13 21:53:00
12:53 PM,87.1,62.1,43,30.02,10.0,NE,8.1,-,N/A,,Partly Cloudy,50,2013-07-13 22:53:00
1:53 PM,87.1,63.0,44,30.01,10.0,ENE,10.4,18.4,N/A,,Scattered Clouds,70,2013-07-13 23:53:00
2:53 PM,86.0,63.0,46,30.00,10.0,Variable,6.9,16.1,N/A,,Partly Cloudy,0,2013-07-14 00:53:00
3:53 PM,86.0,63.0,46,29.99,10.0,ENE,8.1,-,N/A,,Clear,60,2013-07-14 01:53:00
4:53 PM,84.0,63.0,49,29.98,10.0,Variable,6.9,17.3,N/A,,Clear,0,2013-07-14 02:53:00
5:53 PM,82.0,62.1,51,29.98,10.0,East,10.4,18.4,N/A,,Clear,80,2013-07-14 03:53:00
6:53 PM,79.0,62.1,56,29.99,10.0,Variable,4.6,-,N/A,,Clear,0,2013-07-14 04:53:00
7:53 PM,77.0,63.0,62,30.01,10.0,Calm,Calm,-,N/A,,Clear,0,2013-07-14 05:53:00
8:53 PM,75.0,63.0,66,30.02,10.0,Calm,Calm,-,N/A,,Clear,0,2013-07-14 06:53:00
9:53 PM,75.9,63.0,64,30.03,10.0,East,3.5,-,N/A,,Clear,90,2013-07-14 07:53:00
10:29 PM,75.2,62.6,65,30.02,10.0,ENE,3.5,-,N/A,,Mostly Cloudy,60,2013-07-14 08:29:00
10:53 PM,73.9,63.0,68,30.04,10.0,Calm,Calm,-,N/A,,Partly Cloudy,0,2013-07-14 08:53:00
11:53 PM,73.0,64.0,73,30.03,10.0,Calm,Calm,-,N/A,,Clear,0,2013-07-14 09:53:00